Time;durP1;ratioP1;P1;durP2;ratioP2;P2;SDS_P1;SDS_P2;PMS_P1;PMS_P2;Temp;Humidity;BMP_temperature;BMP_pressure;BME280_temperature;BME280_humidity;BME280_pressure;Samples;Min_cycle;Max_cycle;Signal;HPM_P1;HPM_P2
2022/09/08 00:01:00;;;;;;;12.50;5.03;;;;;;;11.28;58.88;100831.92;1829313;77;25753;-75
2022/09/08 00:03:29;;;;;;;6.62;3.47;;;;;;;11.28;58.89;100831.92;1821486;77;27413;-75
2022/09/08 00:06:01;;;;;;;8.88;4.17;;;;;;;11.27;58.88;100834.30;1824502;77;26320;-75
2022/09/08 00:08:28;;;;;;;8.40;3.90;;;;;;;11.25;58.89;100833.62;1822471;77;25824;-75
2022/09/08 00:10:58;;;;;;;7.50;4.22;;;;;;;11.24;58.91;100835.49;1825535;77;25811;-75
2022/09/08 00:13:27;;;;;;;9.53;4.23;;;;;;;11.22;59.07;100839.38;1826366;77;25885;-74
2022/09/08 00:15:56;;;;;;;7.03;4.15;;;;;;;11.21;59.05;100845.73;1823102;77;26899;-75
2022/09/08 00:18:23;;;;;;;10.08;4.20;;;;;;;11.17;59.04;100851.14;1829254;77;26213;-75
2022/09/08 00:20:50;;;;;;;7.35;4.05;;;;;;;11.14;59.29;100848.85;1831953;77;25948;-75
2022/09/08 00:23:16;;;;;;;10.90;4.05;;;;;;;11.12;59.28;100842.31;1829610;77;25903;-75
2022/09/08 00:25:43;;;;;;;7.42;3.92;;;;;;;11.11;59.23;100841.16;1826309;77;25789;-75
2022/09/08 00:28:09;;;;;;;11.53;4.37;;;;;;;11.07;59.31;100840.71;1827033;77;28250;-74
2022/09/08 00:30:35;;;;;;;11.12;4.20;;;;;;;11.05;59.29;100834.70;1831157;77;25253;-75
2022/09/08 00:33:02;;;;;;;6.60;3.87;;;;;;;11.04;59.24;100830.34;1809228;79;25823;-75
2022/09/08 00:35:28;;;;;;;7.58;4.75;;;;;;;11.02;59.06;100827.02;1778543;78;25704;-75
2022/09/08 00:37:54;;;;;;;12.45;4.92;;;;;;;11.01;59.03;100824.03;1783357;80;25957;-75
2022/09/08 00:40:24;;;;;;;8.60;4.33;;;;;;;10.97;59.18;100813.32;1803101;78;27422;-75
2022/09/08 00:43:04;;;;;;;9.63;4.37;;;;;;;10.93;59.40;100818.73;1829477;77;25804;-75
2022/09/08 00:45:36;;;;;;;8.88;4.35;;;;;;;10.90;59.55;100818.28;1819469;77;25273;-76
2022/09/08 00:48:07;;;;;;;8.15;4.00;;;;;;;10.86;59.74;100819.16;1834054;77;26255;-76
2022/09/08 00:50:35;;;;;;;11.10;4.42;;;;;;;10.82;59.79;100824.03;1817468;77;25759;-76
2022/09/08 00:53:06;;;;;;;7.17;4.00;;;;;;;10.77;59.86;100829.13;1787524;79;27438;-76
2022/09/08 00:55:37;;;;;;;8.60;3.90;;;;;;;10.74;60.02;100828.14;1751512;80;25812;-76
2022/09/08 00:58:04;;;;;;;7.47;3.87;;;;;;;10.69;60.25;100823.82;1809654;77;25924;-76
2022/09/08 01:00:31;;;;;;;7.97;4.50;;;;;;;10.64;60.45;100827.58;1823850;77;26078;-77
2022/09/08 01:02:57;;;;;;;10.95;4.37;;;;;;;10.62;60.30;100828.77;1828250;77;25245;-76
2022/09/08 01:05:29;;;;;;;10.25;4.60;;;;;;;10.58;60.27;100831.48;1831300;77;27438;-76
2022/09/08 01:14:04;;;;;;;7.28;3.90;;;;;;;10.52;60.42;100817.48;1834387;77;25800;-77
2022/09/08 01:16:40;;;;;;;12.00;4.45;;;;;;;10.50;60.58;100806.12;1823364;77;25948;-76
2022/09/08 01:19:25;;;;;;;8.38;4.28;;;;;;;10.47;60.46;100803.79;1820984;77;27441;-76
2022/09/08 01:22:26;;;;;;;10.15;4.92;;;;;;;10.43;60.58;100805.17;1828164;77;25867;-77
2022/09/08 01:25:27;;;;;;;9.70;4.37;;;;;;;10.37;60.67;100809.38;1827892;77;25735;-77
2022/09/08 01:28:16;;;;;;;10.53;4.80;;;;;;;10.32;60.80;100811.78;1832187;77;25478;-75
2022/09/08 01:30:46;;;;;;;22.00;4.25;;;;;;;10.33;60.71;100820.13;1829463;77;26356;-76
2022/09/08 01:33:14;;;;;;;8.33;4.37;;;;;;;10.32;60.75;100822.99;1824923;77;27408;-76
2022/09/08 01:35:41;;;;;;;7.42;4.67;;;;;;;10.31;60.59;100819.47;1824157;77;25248;-76
2022/09/08 01:38:10;;;;;;;8.20;4.35;;;;;;;10.31;60.72;100811.98;1826814;77;26134;-75
2022/09/08 01:40:38;;;;;;;7.83;4.15;;;;;;;10.30;60.69;100813.81;1824749;77;25895;-76
2022/09/08 01:43:07;;;;;;;7.53;4.50;;;;;;;10.30;60.69;100817.83;1826781;77;26343;-76
2022/09/08 01:45:37;;;;;;;10.35;4.78;;;;;;;10.29;60.83;100826.02;1829994;77;28002;-76
2022/09/08 01:48:05;;;;;;;6.47;3.50;;;;;;;10.27;61.02;100816.83;1830470;76;25810;-77
2022/09/08 01:50:32;;;;;;;8.00;4.00;;;;;;;10.26;61.16;100814.34;1829567;77;25796;-76
2022/09/08 01:52:58;;;;;;;6.45;3.87;;;;;;;10.24;61.06;100811.02;1833340;77;25904;-76
2022/09/08 01:55:25;;;;;;;12.00;4.22;;;;;;;10.24;61.15;100801.65;1827390;77;25896;-76
2022/09/08 01:57:51;;;;;;;9.38;4.55;;;;;;;10.19;61.05;100803.52;1837727;77;27413;-75
2022/09/08 02:00:17;;;;;;;7.37;3.87;;;;;;;10.15;61.02;100807.57;1828169;77;26433;-76
2022/09/08 02:02:44;;;;;;;8.30;4.72;;;;;;;10.14;61.01;100813.11;1833287;77;25285;-76
2022/09/08 02:05:10;;;;;;;9.35;4.40;;;;;;;10.14;61.09;100810.44;1833021;77;25902;-76
2022/09/08 02:07:37;;;;;;;9.70;4.72;;;;;;;10.17;60.98;100816.75;1834349;77;25769;-76
2022/09/08 02:10:06;;;;;;;6.33;3.92;;;;;;;10.20;60.98;100819.89;1826819;77;27853;-76
2022/09/08 02:12:34;;;;;;;10.15;4.85;;;;;;;10.22;60.93;100823.25;1831484;77;25676;-76
2022/09/08 02:15:00;;;;;;;10.40;5.03;;;;;;;10.22;60.97;100831.78;1807545;78;25822;-75
2022/09/08 02:17:28;;;;;;;8.23;4.70;;;;;;;10.22;61.03;100835.30;1801272;79;26483;-77
2022/09/08 02:19:55;;;;;;;6.72;4.20;;;;;;;10.20;61.16;100833.80;1780880;79;25697;-76
2022/09/08 02:22:22;;;;;;;6.83;4.33;;;;;;;10.13;61.45;100833.69;1836498;77;27444;-76
2022/09/08 02:24:48;;;;;;;8.53;3.80;;;;;;;10.10;61.58;100831.32;1826424;77;26444;-76
2022/09/08 02:27:14;;;;;;;6.97;3.90;;;;;;;10.02;61.77;100824.69;1827341;77;25791;-76
2022/09/08 02:29:41;;;;;;;7.75;4.37;;;;;;;9.93;61.94;100817.22;1828213;77;25721;-76
2022/09/08 02:32:07;;;;;;;6.67;4.42;;;;;;;9.90;62.25;100818.09;1822697;77;25702;-76
2022/09/08 02:34:34;;;;;;;4.65;3.45;;;;;;;9.83;62.38;100821.14;1818558;77;27443;-76
2022/09/08 02:37:00;;;;;;;6.95;4.25;;;;;;;9.76;62.54;100816.99;1835034;77;26045;-76
2022/09/08 02:39:26;;;;;;;7.97;4.17;;;;;;;9.71;62.86;100815.34;1828163;77;25765;-75
2022/09/08 02:41:53;;;;;;;8.63;3.95;;;;;;;9.68;63.00;100819.72;1831866;77;25707;-76
2022/09/08 02:44:19;;;;;;;6.67;3.85;;;;;;;9.65;63.09;100813.37;1837540;77;25705;-76
2022/09/08 02:46:46;;;;;;;5.80;3.47;;;;;;;9.64;63.13;100814.89;1838043;77;27424;-76
2022/09/08 02:49:13;;;;;;;7.67;4.08;;;;;;;9.60;63.03;100814.39;1831087;77;26244;-76
2022/09/08 02:51:40;;;;;;;7.30;3.92;;;;;;;9.58;63.16;100813.73;1825494;77;25777;-77
2022/09/08 02:54:06;;;;;;;7.97;4.12;;;;;;;9.55;63.31;100809.25;1827455;77;25876;-75
2022/09/08 02:56:33;;;;;;;9.03;4.60;;;;;;;9.52;63.40;100813.10;1800151;79;25753;-76
2022/09/08 02:59:00;;;;;;;10.00;4.10;;;;;;;9.49;63.55;100813.47;1801434;79;28108;-76
2022/09/08 03:01:26;;;;;;;8.15;4.37;;;;;;;9.47;63.61;100815.98;1803333;79;25905;-76
2022/09/08 03:03:53;;;;;;;8.50;4.28;;;;;;;9.42;63.71;100816.50;1829661;77;25913;-76
2022/09/08 03:06:19;;;;;;;6.10;3.58;;;;;;;9.40;63.78;100813.17;1834207;77;25899;-76
2022/09/08 03:08:46;;;;;;;8.13;3.70;;;;;;;9.38;63.85;100815.68;1834641;77;25702;-76
2022/09/08 03:11:13;;;;;;;7.75;4.45;;;;;;;9.34;63.73;100809.33;1834772;77;27501;-77
2022/09/08 03:13:40;;;;;;;5.92;3.47;;;;;;;9.33;63.74;100808.18;1842537;77;25738;-76
2022/09/08 03:16:06;;;;;;;7.75;4.08;;;;;;;9.30;63.75;100808.55;1835326;77;25840;-75
2022/09/08 03:18:33;;;;;;;10.13;4.67;;;;;;;9.29;63.86;100807.70;1823931;77;25758;-76
2022/09/08 03:21:06;;;;;;;6.28;3.33;;;;;;;9.27;63.84;100806.20;1815267;77;25826;-76
2022/09/08 03:23:33;;;;;;;8.80;3.58;;;;;;;9.25;63.83;100797.53;1820073;76;28245;-75
2022/09/08 03:26:06;;;;;;;8.15;4.08;;;;;;;9.24;63.88;100793.17;1836909;76;25829;-76
2022/09/08 03:28:33;;;;;;;6.87;3.83;;;;;;;9.20;63.90;100792.70;1829453;76;25689;-75
2022/09/08 03:30:59;;;;;;;7.72;4.00;;;;;;;9.17;63.97;100796.23;1833174;76;26286;-75
2022/09/08 03:33:25;;;;;;;8.33;4.75;;;;;;;9.13;64.08;100806.94;1837987;76;25498;-75
2022/09/08 03:35:52;;;;;;;6.92;3.80;;;;;;;9.11;64.16;100800.41;1828662;76;27502;-76
2022/09/08 03:38:18;;;;;;;9.58;4.25;;;;;;;9.10;64.11;100797.91;1832404;76;26480;-75
2022/09/08 03:40:45;;;;;;;6.15;3.70;;;;;;;9.08;64.08;100803.94;1840808;76;26541;-75
2022/09/08 03:43:11;;;;;;;12.60;4.10;;;;;;;9.07;64.04;100807.59;1835671;76;26211;-75
2022/09/08 03:45:44;;;;;;;8.28;3.98;;;;;;;9.05;64.16;100804.27;1829179;76;25783;-75
2022/09/08 03:48:12;;;;;;;8.50;3.67;;;;;;;9.02;64.19;100801.95;1833924;76;27631;-75
2022/09/08 03:50:39;;;;;;;6.08;3.90;;;;;;;9.00;64.26;100792.75;1836512;76;26002;-75
2022/09/08 03:53:05;;;;;;;7.58;3.92;;;;;;;8.98;64.40;100782.74;1835785;76;25737;-75
2022/09/08 03:55:32;;;;;;;6.12;3.60;;;;;;;8.94;64.39;100781.95;1794809;79;26265;-75
2022/09/08 03:57:59;;;;;;;8.23;3.80;;;;;;;8.90;64.46;100790.79;1826217;77;25678;-76
2022/09/08 04:00:27;;;;;;;6.30;3.55;;;;;;;8.85;64.53;100781.64;1838832;77;27428;-75
2022/09/08 04:02:55;;;;;;;8.30;4.35;;;;;;;8.77;64.60;100786.48;1838309;77;25743;-75
2022/09/08 04:05:21;;;;;;;7.83;3.87;;;;;;;8.73;64.78;100791.83;1824845;76;25930;-75
2022/09/08 04:07:48;;;;;;;8.53;4.10;;;;;;;8.66;64.82;100783.35;1824273;76;26423;-75
2022/09/08 04:10:15;;;;;;;5.55;3.90;;;;;;;8.60;64.99;100775.50;1834056;76;25857;-74
2022/09/08 04:12:41;;;;;;;9.10;4.33;;;;;;;8.59;65.16;100782.35;1827919;76;28268;-74
2022/09/08 04:15:09;;;;;;;8.53;4.37;;;;;;;8.58;65.29;100781.52;1832496;76;25841;-75
2022/09/08 04:17:36;;;;;;;6.37;3.77;;;;;;;8.58;65.43;100784.19;1830710;76;25772;-75
2022/09/08 04:20:03;;;;;;;8.90;4.12;;;;;;;8.59;65.47;100788.53;1834941;76;26046;-75
2022/09/08 04:22:29;;;;;;;8.75;4.40;;;;;;;8.60;65.61;100786.70;1832859;76;25759;-75
2022/09/08 04:24:56;;;;;;;8.20;3.83;;;;;;;8.59;65.59;100787.20;1839722;76;28442;-75
2022/09/08 04:27:23;;;;;;;10.90;4.58;;;;;;;8.62;65.78;100783.36;1829749;76;25291;-75
2022/09/08 04:29:50;;;;;;;7.05;4.00;;;;;;;8.67;65.80;100783.67;1829901;76;25716;-75
2022/09/08 04:32:18;;;;;;;6.72;4.20;;;;;;;8.68;65.82;100781.34;1807957;78;25811;-75
2022/09/08 04:34:49;;;;;;;8.03;4.45;;;;;;;8.66;65.89;100780.16;1836088;76;26588;-74
2022/09/08 04:37:16;;;;;;;8.03;4.22;;;;;;;8.61;65.94;100781.19;1834052;76;28255;-75
2022/09/08 04:39:43;;;;;;;10.65;4.78;;;;;;;8.61;66.16;100787.02;1835200;76;25744;-76
2022/09/08 04:42:09;;;;;;;13.83;4.22;;;;;;;8.60;66.26;100784.03;1837658;76;25876;-75
2022/09/08 04:44:35;;;;;;;8.70;4.67;;;;;;;8.61;66.45;100783.86;1837396;76;25813;-75
2022/09/08 04:47:02;;;;;;;8.70;4.67;;;;;;;8.63;66.54;100792.53;1835657;76;25976;-75
2022/09/08 04:49:28;;;;;;;6.67;4.25;;;;;;;8.67;66.78;100790.34;1833238;76;27587;-75
2022/09/08 04:51:55;;;;;;;12.53;4.95;;;;;;;8.71;66.95;100788.50;1837695;76;25729;-75
2022/09/08 04:54:22;;;;;;;8.55;4.67;;;;;;;8.74;67.20;100792.67;1837482;76;25761;-75
2022/09/08 04:56:49;;;;;;;10.20;4.28;;;;;;;8.77;67.21;100785.14;1834455;76;25868;-78
2022/09/08 04:59:16;;;;;;;10.15;5.17;;;;;;;8.83;67.22;100785.79;1833289;76;25806;-78
2022/09/08 05:01:43;;;;;;;9.68;4.72;;;;;;;8.89;67.26;100784.30;1835251;76;27472;-78
2022/09/08 05:04:09;;;;;;;9.00;4.05;;;;;;;8.96;67.53;100792.77;1832093;77;25833;-77
2022/09/08 05:06:36;;;;;;;9.15;4.35;;;;;;;9.01;67.39;100799.78;1832760;77;25867;-78
2022/09/08 05:09:03;;;;;;;8.55;3.65;;;;;;;9.09;67.58;100803.75;1830689;77;25755;-78
2022/09/08 05:11:33;;;;;;;7.40;3.40;;;;;;;9.14;67.54;100807.25;1815498;77;25737;-77
2022/09/08 05:13:59;;;;;;;8.65;4.47;;;;;;;9.22;67.82;100804.55;1830744;77;28295;-76
2022/09/08 05:16:28;;;;;;;6.87;4.05;;;;;;;9.29;67.90;100803.70;1840070;77;26528;-76
2022/09/08 05:18:58;;;;;;;8.88;4.17;;;;;;;9.36;67.79;100807.84;1834743;77;25776;-75
2022/09/08 05:21:27;;;;;;;7.90;3.98;;;;;;;9.43;67.92;100810.13;1836632;77;25759;-75
2022/09/08 05:23:55;;;;;;;12.35;4.47;;;;;;;9.49;68.38;100799.27;1833515;77;25919;-75
2022/09/08 05:26:23;;;;;;;7.53;3.85;;;;;;;9.54;68.52;100797.71;1839992;77;27463;-76
2022/09/08 05:28:51;;;;;;;8.90;4.72;;;;;;;9.60;68.71;100796.20;1833682;77;25791;-75
2022/09/08 05:31:22;;;;;;;9.33;4.60;;;;;;;9.67;68.65;100801.16;1832694;77;26387;-75
2022/09/08 05:33:51;;;;;;;8.98;4.45;;;;;;;9.73;68.77;100799.95;1833303;77;26292;-75
2022/09/08 05:36:22;;;;;;;7.08;4.08;;;;;;;9.83;68.72;100804.59;1834159;77;25834;-75
2022/09/08 05:38:49;;;;;;;7.17;3.72;;;;;;;9.91;69.06;100803.19;1814120;77;27448;-76
2022/09/08 05:41:16;;;;;;;9.48;4.22;;;;;;;9.99;69.19;100796.94;1837038;77;26452;-75
2022/09/08 05:43:43;;;;;;;8.35;4.58;;;;;;;10.07;69.30;100796.90;1839896;77;25856;-76
2022/09/08 05:46:10;;;;;;;8.55;4.15;;;;;;;10.17;69.32;100788.64;1836317;76;25885;-76
2022/09/08 05:48:37;;;;;;;9.53;4.80;;;;;;;10.28;69.59;100782.87;1840905;77;25765;-76
2022/09/08 05:51:12;;;;;;;8.25;4.20;;;;;;;10.39;69.63;100783.25;1839388;77;27595;-75
2022/09/08 05:53:38;;;;;;;8.63;4.00;;;;;;;10.52;69.41;100779.45;1819738;76;25717;-76
2022/09/08 05:56:08;;;;;;;6.92;4.22;;;;;;;10.63;69.03;100775.50;1799657;78;25810;-77
2022/09/08 05:58:35;;;;;;;9.38;3.90;;;;;;;10.71;68.91;100770.08;1783560;79;25986;-76
2022/09/08 06:01:11;;;;;;;7.37;3.90;;;;;;;10.79;68.41;100771.33;1815840;77;25871;-76
2022/09/08 06:03:37;;;;;;;8.90;4.08;;;;;;;10.86;68.55;100775.75;1819406;77;27990;-76
2022/09/08 06:06:08;;;;;;;8.48;4.37;;;;;;;10.93;68.54;100775.84;1816331;77;26023;-76
2022/09/08 06:08:37;;;;;;;12.65;3.87;;;;;;;11.00;68.54;100776.78;1809426;77;25877;-76
2022/09/08 06:11:04;;;;;;;7.87;4.22;;;;;;;11.04;68.37;100787.45;1807239;77;25899;-76
2022/09/08 06:13:33;;;;;;;7.60;3.77;;;;;;;11.09;68.19;100789.08;1823918;77;26387;-76
2022/09/08 06:16:12;;;;;;;8.48;4.00;;;;;;;11.14;67.89;100793.36;1828750;77;27600;-76
2022/09/08 06:18:41;;;;;;;13.62;4.33;;;;;;;11.20;67.59;100795.83;1830863;76;25803;-76
2022/09/08 06:21:15;;;;;;;7.33;4.00;;;;;;;11.26;67.62;100797.76;1844296;76;26055;-76
2022/09/08 06:23:42;;;;;;;15.68;3.40;;;;;;;11.30;67.35;100793.17;1836354;76;25825;-77
2022/09/08 06:26:28;;;;;;;7.87;3.35;;;;;;;11.36;67.15;100792.42;1821716;77;25305;-77
2022/09/08 06:29:15;;;;;;;8.95;3.60;;;;;;;11.47;67.22;100792.45;1810693;77;27436;-76
2022/09/08 06:32:05;;;;;;;9.83;3.95;;;;;;;11.64;67.57;100796.58;1827771;77;25981;-76
2022/09/08 06:34:42;;;;;;;12.23;4.37;;;;;;;11.82;68.27;100788.99;1824514;77;25907;-76
2022/09/08 06:37:27;;;;;;;8.10;3.67;;;;;;;12.01;67.54;100784.84;1830801;77;26599;-77
2022/09/08 06:40:05;;;;;;;6.10;3.35;;;;;;;12.20;66.16;100786.37;1838827;77;25942;-77
2022/09/08 06:42:49;;;;;;;7.90;3.20;;;;;;;12.44;66.98;100792.36;1824909;77;27415;-77
2022/09/08 06:45:27;;;;;;;7.65;3.90;;;;;;;12.65;66.58;100791.81;1822860;77;25971;-77
2022/09/08 06:48:10;;;;;;;11.28;3.45;;;;;;;12.85;66.63;100800.84;1843167;76;26298;-76
2022/09/08 06:50:42;;;;;;;7.47;3.00;;;;;;;13.00;66.20;100800.21;1834905;76;25779;-76
2022/09/08 06:53:13;;;;;;;8.35;3.30;;;;;;;13.17;66.24;100810.20;1820735;76;25980;-76
2022/09/08 06:56:00;;;;;;;5.60;3.27;;;;;;;13.33;64.33;100804.98;1835467;76;27434;-77
2022/09/08 06:58:32;;;;;;;11.15;3.05;;;;;;;13.49;62.67;100808.19;1829711;76;25854;-77
2022/09/08 07:01:06;;;;;;;9.40;2.65;;;;;;;13.65;61.24;100812.38;1799962;78;25890;-77
2022/09/08 07:04:04;;;;;;;7.70;3.05;;;;;;;13.78;59.96;100800.30;1822475;77;26134;-76
2022/09/08 07:06:39;;;;;;;8.93;3.60;;;;;;;13.90;59.49;100805.41;1846038;76;26431;-76
2022/09/08 07:09:28;;;;;;;7.97;3.37;;;;;;;14.04;58.79;100808.46;1838705;76;28337;-76
2022/09/08 07:12:00;;;;;;;8.00;3.02;;;;;;;14.17;58.49;100799.06;1828978;76;25742;-77
2022/09/08 07:15:04;;;;;;;14.28;4.80;;;;;;;14.30;58.26;100804.50;1830987;76;26515;-77
2022/09/08 07:17:49;;;;;;;6.95;2.72;;;;;;;14.40;57.45;100806.77;1819643;77;25828;-77
2022/09/08 07:20:15;;;;;;;8.35;3.22;;;;;;;14.53;56.50;100804.92;1733191;80;25843;-77
2022/09/08 07:22:53;;;;;;;9.85;3.08;;;;;;;14.66;56.60;100796.84;1822185;77;27436;-77
2022/09/08 07:25:33;;;;;;;8.15;3.62;;;;;;;14.78;56.22;100793.52;1835593;77;25797;-77
2022/09/08 07:28:08;;;;;;;11.73;3.55;;;;;;;14.91;55.51;100801.56;1811988;77;26652;-77
2022/09/08 07:30:37;;;;;;;8.13;3.25;;;;;;;15.04;54.57;100803.73;1824145;77;26369;-76
2022/09/08 07:33:14;;;;;;;11.75;2.33;;;;;;;15.15;54.86;100798.20;1828763;77;25611;-76
2022/09/08 07:35:52;;;;;;;8.20;3.47;;;;;;;15.24;54.07;100795.59;1829250;77;27459;-75
2022/09/08 07:38:33;;;;;;;13.98;3.05;;;;;;;15.32;54.11;100805.63;1797820;79;25917;-76
2022/09/08 07:40:59;;;;;;;11.55;3.60;;;;;;;15.40;54.09;100802.69;1788087;79;25327;-76
2022/09/08 07:43:26;;;;;;;11.63;3.60;;;;;;;15.49;53.58;100806.02;1819991;77;25713;-77
2022/09/08 07:46:11;;;;;;;11.43;3.80;;;;;;;15.57;53.26;100798.21;1813383;77;25786;-76
2022/09/08 07:49:01;;;;;;;5.60;2.58;;;;;;;15.64;51.70;100800.34;1763259;77;27466;-77
2022/09/08 07:51:33;;;;;;;6.35;2.77;;;;;;;15.73;51.39;100808.00;1800793;77;25765;-76
2022/09/08 07:54:08;;;;;;;11.60;3.27;;;;;;;15.82;51.04;100808.06;1819131;77;25731;-76
2022/09/08 07:56:48;;;;;;;7.95;2.62;;;;;;;15.95;51.30;100805.81;1824834;77;26387;-76
2022/09/08 07:59:23;;;;;;;11.22;3.42;;;;;;;16.07;51.05;100810.81;1818467;77;26443;-77
2022/09/08 08:02:20;;;;;;;10.03;3.12;;;;;;;16.16;50.30;100818.46;1814610;77;27438;-77
2022/09/08 08:05:20;;;;;;;10.08;3.15;;;;;;;16.28;49.96;100828.03;1830681;77;26090;-76
2022/09/08 08:08:21;;;;;;;8.17;2.33;;;;;;;16.39;49.71;100827.34;1830671;77;26439;-77
2022/09/08 08:11:15;;;;;;;7.08;2.72;;;;;;;16.50;49.74;100828.54;1838162;77;34863;-76
2022/09/08 08:14:01;;;;;;;5.95;2.50;;;;;;;16.57;49.22;100819.31;1751520;80;26362;-77
2022/09/08 08:16:57;;;;;;;7.67;2.58;;;;;;;16.65;48.22;100826.34;1738177;81;28314;-76
2022/09/08 08:20:01;;;;;;;8.15;2.80;;;;;;;16.74;48.81;100829.08;1811609;77;26483;-75
2022/09/08 08:22:42;;;;;;;10.90;2.55;;;;;;;16.83;48.02;100825.86;1835719;77;26460;-77
2022/09/08 08:28:23;;;;;;;18.67;3.25;;;;;;;17.00;47.57;100817.19;1834165;77;25689;-77
2022/09/08 08:31:00;;;;;;;11.55;2.90;;;;;;;17.10;46.98;100813.44;1836047;77;27592;-77
2022/09/08 08:33:53;;;;;;;10.15;2.72;;;;;;;17.17;47.01;100805.53;1832795;77;25996;-77
2022/09/08 08:36:23;;;;;;;11.20;3.00;;;;;;;17.25;46.66;100809.84;1790395;79;25785;-77
2022/09/08 08:38:54;;;;;;;9.33;3.17;;;;;;;17.33;46.63;100808.19;1785230;79;26932;-77
2022/09/08 08:41:35;;;;;;;8.33;2.40;;;;;;;17.39;46.73;100799.15;1787686;79;25672;-78
2022/09/08 08:44:48;;;;;;;8.65;2.80;;;;;;;17.46;46.64;100793.97;1783793;79;27518;-77
2022/09/08 08:47:27;;;;;;;7.62;2.52;;;;;;;17.53;45.90;100784.45;1797915;79;26414;-77
2022/09/08 08:50:18;;;;;;;5.30;2.27;;;;;;;17.63;46.03;100786.08;1821753;76;25553;-76
2022/09/08 08:53:19;;;;;;;;;;;;;;;17.72;45.61;100772.52;1827616;76;26659;-77
2022/09/08 08:56:12;;;;;;;5.45;2.15;;;;;;;17.77;45.53;100762.36;1826937;76;25654;-77
2022/09/08 08:58:56;;;;;;;6.67;2.75;;;;;;;17.83;45.83;100769.56;1830922;76;28233;-77
2022/09/08 09:02:05;;;;;;;11.38;2.52;;;;;;;17.93;45.91;100772.53;1783806;77;25912;-77
2022/09/08 09:04:58;;;;;;;10.60;3.20;;;;;;;18.01;45.69;100770.84;1826252;77;25860;-77
2022/09/08 09:07:45;;;;;;;7.20;2.80;;;;;;;18.07;44.76;100761.81;1817747;77;26014;-76
2022/09/08 09:10:20;;;;;;;8.88;2.70;;;;;;;18.14;44.68;100759.81;1826387;77;25733;-76
2022/09/08 09:13:16;;;;;;;5.97;2.67;;;;;;;18.19;44.49;100746.39;1833924;77;27413;-76
2022/09/08 09:15:57;;;;;;;11.85;3.52;;;;;;;18.29;44.67;100749.35;1830876;77;26336;-76
2022/09/08 09:19:01;;;;;;;9.85;2.55;;;;;;;18.38;44.13;100738.47;1820951;77;25739;-76
2022/09/08 09:21:54;;;;;;;8.43;3.05;;;;;;;18.44;43.84;100728.06;1822554;77;25719;-78
2022/09/08 09:24:41;;;;;;;11.30;3.00;;;;;;;18.50;43.09;100727.67;1821503;77;25741;-76
2022/09/08 09:27:30;;;;;;;7.05;2.60;;;;;;;18.56;42.73;100726.73;1822922;76;27605;-77
2022/09/08 09:30:22;;;;;;;5.50;2.55;;;;;;;18.64;42.99;100727.72;1804691;76;26035;-76
2022/09/08 09:33:32;;;;;;;14.60;3.45;;;;;;;18.72;42.91;100730.91;1791719;78;25722;-79
2022/09/08 09:36:23;;;;;;;10.98;3.25;;;;;;;18.81;42.93;100727.30;1768489;80;26053;-79
2022/09/08 09:39:02;;;;;;;;;;;;;;;18.92;42.72;100727.30;1833504;77;26040;-77
2022/09/08 09:41:43;;;;;;;5.80;2.52;;;;;;;19.02;41.83;100731.59;1770217;76;28166;-76
2022/09/08 09:44:52;;;;;;;9.50;2.77;;;;;;;19.08;42.06;100728.44;1774251;79;25754;-78
2022/09/08 09:47:27;;;;;;;6.67;2.35;;;;;;;19.11;41.86;100728.80;1775768;78;25797;-80
2022/09/08 09:50:25;;;;;;;9.73;2.27;;;;;;;19.19;41.30;100728.42;1786066;79;26223;-77
2022/09/08 09:53:18;;;;;;;5.85;2.45;;;;;;;19.29;41.68;100733.78;1825375;77;25805;-80
2022/09/08 09:56:17;;;;;;;6.92;2.75;;;;;;;19.39;41.50;100730.77;1824178;76;28389;-77
2022/09/08 09:59:05;;;;;;;8.30;3.05;;;;;;;19.44;40.67;100734.92;1834151;77;25733;-82
2022/09/08 10:01:46;;;;;;;9.38;2.75;;;;;;;19.53;40.90;100731.30;1823771;77;25778;-77
2022/09/08 10:04:27;;;;;;;9.63;2.80;;;;;;;19.61;40.01;100725.50;1828215;77;26274;-77
2022/09/08 10:07:17;;;;;;;;;;;;;;;19.71;40.33;100729.76;1826408;77;25709;-77
2022/09/08 10:10:20;;;;;;;7.72;3.27;;;;;;;19.79;40.20;100738.87;1829888;77;28680;-77
2022/09/08 10:13:21;;;;;;;5.97;2.42;;;;;;;19.84;39.57;100732.19;1833735;76;25811;-77
2022/09/08 10:16:13;;;;;;;4.87;2.67;;;;;;;19.92;40.97;100727.70;1783595;79;25271;-77
2022/09/08 10:18:54;;;;;;;4.22;2.37;;;;;;;20.00;40.24;100722.69;1720448;79;26521;-77
2022/09/08 10:21:43;;;;;;;6.60;3.00;;;;;;;20.09;40.02;100721.75;1783025;78;25809;-77
2022/09/08 10:24:39;;;;;;;6.47;2.72;;;;;;;20.17;39.53;100723.23;1803173;79;27716;-77
2022/09/08 10:27:45;;;;;;;6.30;2.40;;;;;;;20.24;40.05;100726.65;1828637;76;25834;-77
2022/09/08 10:30:26;;;;;;;12.37;2.47;;;;;;;20.30;40.28;100730.56;1842878;77;25913;-78
2022/09/08 10:33:29;;;;;;;8.25;2.90;;;;;;;20.27;39.31;100724.81;1827692;77;25751;-78
2022/09/08 10:36:08;;;;;;;6.62;2.70;;;;;;;20.28;39.46;100721.00;1840510;77;25715;-78
2022/09/08 10:38:52;;;;;;;8.43;2.80;;;;;;;20.30;39.03;100716.13;1820414;77;28110;-77
2022/09/08 10:42:11;;;;;;;8.75;2.95;;;;;;;20.33;39.25;100708.85;1818492;77;25896;-76
2022/09/08 10:45:18;;;;;;;6.58;2.40;;;;;;;20.37;39.66;100714.08;1775281;79;25775;-76
2022/09/08 10:48:23;;;;;;;7.28;2.55;;;;;;;20.33;39.26;100708.32;1816721;76;27039;-76
2022/09/08 10:50:55;;;;;;;5.37;2.05;;;;;;;20.29;39.18;100700.90;1826521;77;25690;-77
2022/09/08 10:53:33;;;;;;;13.10;2.47;;;;;;;20.27;38.96;100695.72;1831095;77;28265;-77
2022/09/08 10:56:28;;;;;;;9.63;2.40;;;;;;;20.35;39.06;100698.02;1827764;77;25714;-77
2022/09/08 10:59:27;;;;;;;8.68;2.62;;;;;;;20.44;39.26;100691.62;1821368;77;25922;-79
2022/09/08 11:02:14;;;;;;;3.62;2.15;;;;;;;20.55;39.18;100692.06;1823576;77;25793;-78
2022/09/08 11:05:01;;;;;;;6.10;2.50;;;;;;;20.64;39.80;100691.37;1812575;77;25992;-77
2022/09/08 11:08:07;;;;;;;5.25;2.40;;;;;;;20.75;39.08;100689.62;1822120;77;27647;-79
2022/09/08 11:11:06;;;;;;;7.17;2.92;;;;;;;20.85;39.22;100697.12;1827252;77;25900;-81
2022/09/08 11:13:50;;;;;;;7.33;2.60;;;;;;;20.94;38.63;100684.69;1821097;77;26331;-79
2022/09/08 11:16:50;;;;;;;4.53;2.80;;;;;;;21.01;38.88;100685.34;1829558;77;26231;-78
2022/09/08 11:19:46;;;;;;;4.50;2.42;;;;;;;21.09;38.32;100686.28;1818183;77;25755;-78
2022/09/08 11:22:39;;;;;;;11.03;2.80;;;;;;;21.13;38.18;100677.35;1828147;77;27508;-77
2022/09/08 11:25:30;;;;;;;11.10;3.00;;;;;;;21.20;37.78;100676.63;1799442;77;25789;-76
2022/09/08 11:27:59;;;;;;;8.53;2.52;;;;;;;21.26;37.51;100674.24;1822528;77;25908;-81
2022/09/08 11:30:49;;;;;;;5.97;2.50;;;;;;;21.32;37.12;100670.49;1842358;76;25712;-77
2022/09/08 11:33:53;;;;;;;11.85;3.27;;;;;;;21.38;36.88;100670.03;1827165;76;25843;-77
2022/09/08 11:36:40;;;;;;;8.90;2.85;;;;;;;21.41;37.05;100668.14;1769989;79;27535;-77
2022/09/08 11:39:32;;;;;;;7.42;2.20;;;;;;;21.43;36.66;100660.00;1798281;79;25914;-79
2022/09/08 11:42:20;;;;;;;3.42;2.50;;;;;;;21.53;36.66;100657.10;1824106;77;25933;-79
2022/09/08 11:45:08;;;;;;;9.43;2.77;;;;;;;21.56;36.47;100656.03;1830008;77;25798;-78
2022/09/08 11:48:14;;;;;;;8.75;2.50;;;;;;;21.58;36.36;100650.34;1819242;76;25762;-78
2022/09/08 11:51:06;;;;;;;7.45;2.33;;;;;;;21.55;36.68;100650.85;1823365;77;27622;-79
2022/09/08 11:53:59;;;;;;;9.00;2.60;;;;;;;21.54;36.55;100648.66;1824446;77;25774;-78
2022/09/08 11:56:45;;;;;;;9.48;2.67;;;;;;;21.53;36.58;100642.11;1819758;77;25800;-78
2022/09/08 11:59:49;;;;;;;7.58;2.30;;;;;;;21.55;36.05;100636.69;1824152;77;25795;-78
2022/09/08 12:02:56;;;;;;;7.40;1.87;;;;;;;21.59;36.18;100628.81;1822562;77;25883;-78
2022/09/08 12:05:48;;;;;;;3.52;2.47;;;;;;;21.64;36.82;100622.84;1818642;77;27446;-77
2022/09/08 12:08:29;;;;;;;7.70;3.22;;;;;;;21.72;35.47;100619.67;1837242;77;25773;-79
2022/09/08 12:11:28;;;;;;;6.17;2.45;;;;;;;21.75;35.59;100621.86;1832769;77;25777;-78
2022/09/08 12:14:22;;;;;;;4.78;2.08;;;;;;;21.78;35.50;100620.00;1824625;77;25768;-78
2022/09/08 12:17:09;;;;;;;3.45;1.75;;;;;;;21.83;35.96;100609.17;1823840;77;25794;-79
2022/09/08 12:20:06;;;;;;;10.38;2.55;;;;;;;21.96;35.60;100607.34;1784714;79;27552;-78
2022/09/08 12:22:47;;;;;;;5.90;2.15;;;;;;;22.05;35.86;100600.33;1802778;79;25843;-78